FD24 weather

Southern Fruit Groves Airport
Port St. Lucie, Florida, United States

Public forecast

Using degrees Fahrenheit for public forecast. Weather courtesy of forecast.io.

Closest aviation weather report (METAR) to Southern Fruit Groves Airport

Closest report is Witham Field, 16.2 nm (29.9 km) E. Retrieved 2019/10/23 10:35 UTC (49 minutes ago):

KSUA 231035Z AUTO 00000KT 10SM CLR 25/22 A2999 RMK AO2

Closest aviation forecast (TAF) to Southern Fruit Groves Airport

Closest forecast is Witham Field, 16.2 nm (29.9 km) E. Retrieved 2019/10/23 06:52 UTC (5 hours ago):

TAF KSUA 230549Z 2306/2406 31004KT P6SM FEW250 FM231400 03009KT P6SM SCT035 FM231700 04010KT P6SM VCSH BKN035 FM240100 03008KT P6SM VCSH BKN035